createdAt,value
2019-02-05T00:00:36.136Z,-5.20
2019-02-05T00:03:02.887Z,-5.00
2019-02-05T00:05:29.436Z,-4.90
2019-02-05T00:07:55.991Z,-4.80
2019-02-05T00:10:22.612Z,-4.80
2019-02-05T00:12:49.155Z,-4.80
2019-02-05T00:15:15.713Z,-4.80
2019-02-05T00:17:42.227Z,-4.80
2019-02-05T00:20:08.977Z,-4.60
2019-02-05T00:22:35.536Z,-4.50
2019-02-05T00:25:02.151Z,-4.50
2019-02-05T00:27:28.710Z,-4.40
2019-02-05T00:29:55.262Z,-4.30
2019-02-05T00:32:22.071Z,-4.20
2019-02-05T00:34:48.620Z,-4.10
2019-02-05T00:37:15.728Z,-4.10
2019-02-05T00:39:42.303Z,-4.10
2019-02-05T00:42:08.822Z,-4.00
2019-02-05T00:44:35.376Z,-4.00
2019-02-05T00:47:01.923Z,-4.10
2019-02-05T00:49:28.440Z,-4.20
2019-02-05T00:51:54.995Z,-4.00
2019-02-05T00:54:21.619Z,-3.90
2019-02-05T00:56:48.562Z,-3.80
2019-02-05T00:59:15.119Z,-3.80
2019-02-05T01:01:41.727Z,-3.70
2019-02-05T01:04:08.319Z,-3.80
2019-02-05T01:06:34.882Z,-3.60
2019-02-05T01:09:01.496Z,-3.60
2019-02-05T01:11:28.017Z,-3.50
2019-02-05T01:13:54.569Z,-3.50
2019-02-05T01:16:21.288Z,-3.50
2019-02-05T01:18:47.840Z,-3.40
2019-02-05T01:21:14.356Z,-3.40
2019-02-05T01:23:41.008Z,-3.40
2019-02-05T01:26:07.527Z,-3.40
2019-02-05T01:28:34.275Z,-3.40
2019-02-05T01:31:00.796Z,-3.30
2019-02-05T01:33:27.342Z,-3.30
2019-02-05T01:35:53.856Z,-3.30
2019-02-05T01:38:20.429Z,-3.20
2019-02-05T01:40:47.029Z,-3.20
2019-02-05T01:43:13.539Z,-3.20
2019-02-05T01:45:40.091Z,-3.20
2019-02-05T01:48:06.608Z,-3.10
2019-02-05T01:50:33.162Z,-3.10
2019-02-05T01:53:00.081Z,-3.00
2019-02-05T01:55:26.635Z,-2.90
2019-02-05T01:57:53.153Z,-2.80
2019-02-05T02:00:26.924Z,-2.80
2019-02-05T02:02:53.502Z,-2.70
2019-02-05T02:05:20.129Z,-2.70
2019-02-05T02:07:46.679Z,-2.70
2019-02-05T02:10:14.793Z,-2.70
2019-02-05T02:12:41.343Z,-2.70
2019-02-05T02:15:09.202Z,-2.60
2019-02-05T02:17:35.789Z,-2.60
2019-02-05T02:20:04.067Z,-2.60
2019-02-05T02:22:30.592Z,-2.60
2019-02-05T02:24:57.135Z,-2.60
2019-02-05T02:27:23.697Z,-2.50
2019-02-05T02:29:50.408Z,-2.50
2019-02-05T02:32:16.972Z,-2.40
2019-02-05T02:34:43.523Z,-2.40
2019-02-05T02:37:10.044Z,-2.30
2019-02-05T02:39:36.591Z,-2.40
2019-02-05T02:42:03.143Z,-2.40
2019-02-05T02:44:29.658Z,-2.40
2019-02-05T02:46:56.504Z,-2.30
2019-02-05T02:49:23.064Z,-2.30
2019-02-05T02:51:49.597Z,-2.30
2019-02-05T02:54:16.123Z,-2.30
2019-02-05T02:56:42.685Z,-2.30
2019-02-05T02:59:09.187Z,-2.30
2019-02-05T03:01:35.741Z,-2.30
2019-02-05T03:04:02.378Z,-2.20
2019-02-05T03:06:28.947Z,-2.20
2019-02-05T03:08:55.803Z,-2.20
2019-02-05T03:11:22.324Z,-2.20
2019-02-05T03:13:48.881Z,-2.20
2019-02-05T03:16:15.438Z,-2.10
2019-02-05T03:18:41.951Z,-2.10
2019-02-05T03:21:08.509Z,-2.10
2019-02-05T03:23:35.021Z,-2.20
2019-02-05T03:26:01.577Z,-2.20
2019-02-05T03:28:28.130Z,-2.10
2019-02-05T03:30:54.641Z,-2.10
2019-02-05T03:33:21.879Z,-2.10
2019-02-05T03:35:48.383Z,-2.10
2019-02-05T03:38:14.940Z,-2.10
2019-02-05T03:40:58.443Z,-2.10
2019-02-05T03:43:25.051Z,-2.10
2019-02-05T03:45:52.264Z,-2.20
2019-02-05T03:48:19.125Z,-2.30
2019-02-05T03:50:46.461Z,-2.30
2019-02-05T03:53:14.811Z,-2.30
2019-02-05T03:55:43.128Z,-2.30
2019-02-05T03:58:11.475Z,-2.30
2019-02-05T04:00:47.728Z,-2.30
2019-02-05T04:03:16.175Z,-2.30
2019-02-05T04:05:47.819Z,-2.30
2019-02-05T04:08:19.231Z,-2.30
2019-02-05T04:10:50.644Z,-2.40
2019-02-05T04:13:22.112Z,-2.40
2019-02-05T04:15:50.460Z,-2.40
2019-02-05T04:18:33.970Z,-2.30
2019-02-05T04:21:14.482Z,-2.40
2019-02-05T04:23:48.967Z,-2.30
2019-02-05T04:26:34.090Z,-2.40
2019-02-05T04:29:11.483Z,-2.40
2019-02-05T04:31:44.039Z,-2.40
2019-02-05T04:34:15.432Z,-2.40
2019-02-05T04:37:00.712Z,-2.40
2019-02-05T04:39:35.086Z,-2.30
2019-02-05T04:42:06.469Z,-2.30
2019-02-05T04:44:37.664Z,-2.30
2019-02-05T04:47:22.680Z,-2.50
2019-02-05T04:50:03.071Z,-2.50
2019-02-05T04:52:43.396Z,-2.40
2019-02-05T04:55:11.784Z,-2.40
2019-02-05T04:57:40.136Z,-2.40
2019-02-05T05:00:17.120Z,-2.40
2019-02-05T05:02:45.600Z,-2.40
2019-02-05T05:05:31.896Z,-2.30
2019-02-05T05:08:00.249Z,-2.30
2019-02-05T05:10:26.765Z,-2.30
2019-02-05T05:12:53.356Z,-2.30
2019-02-05T05:15:19.887Z,-2.30
2019-02-05T05:17:46.437Z,-2.30
2019-02-05T05:20:13.006Z,-2.30
2019-02-05T05:22:39.621Z,-2.40
2019-02-05T05:25:07.576Z,-2.30
2019-02-05T05:27:34.092Z,-2.30
2019-02-05T05:30:00.739Z,-2.30
2019-02-05T05:32:27.297Z,-2.20
2019-02-05T05:34:54.234Z,-2.20
2019-02-05T05:37:20.781Z,-2.20
2019-02-05T05:39:47.300Z,-2.30
2019-02-05T05:42:13.854Z,-2.30
2019-02-05T05:44:40.723Z,-2.30
2019-02-05T05:47:07.377Z,-2.30
2019-02-05T05:49:33.850Z,-2.30
2019-02-05T05:52:00.396Z,-2.40
2019-02-05T05:54:26.916Z,-2.40
2019-02-05T05:56:53.423Z,-2.60
2019-02-05T05:59:20.155Z,-2.60
2019-02-05T06:01:46.727Z,-2.60
2019-02-05T06:04:13.244Z,-2.70
2019-02-05T06:06:40.110Z,-2.60
2019-02-05T06:09:06.723Z,-2.60
2019-02-05T06:11:33.321Z,-2.70
2019-02-05T06:13:59.881Z,-2.70
2019-02-05T06:16:26.394Z,-2.70
2019-02-05T06:18:52.948Z,-2.80
2019-02-05T06:21:19.468Z,-2.90
2019-02-05T06:23:46.315Z,-2.90
2019-02-05T06:26:12.811Z,-2.90
2019-02-05T06:28:39.568Z,-2.90
2019-02-05T06:31:06.400Z,-2.90
2019-02-05T06:33:35.051Z,-2.90
2019-02-05T06:36:01.652Z,-3.00
2019-02-05T06:38:28.165Z,-3.00
2019-02-05T06:40:54.712Z,-3.00
2019-02-05T06:43:21.264Z,-3.10
2019-02-05T06:45:47.811Z,-3.10
2019-02-05T06:48:14.772Z,-3.00
2019-02-05T06:50:41.328Z,-3.00
2019-02-05T06:53:10.584Z,-3.00
2019-02-05T06:55:37.143Z,-3.00
2019-02-05T06:58:04.100Z,-3.00
2019-02-05T07:00:30.624Z,-2.90
2019-02-05T07:02:57.176Z,-2.90
2019-02-05T07:05:23.734Z,-2.90
2019-02-05T07:07:50.685Z,-2.80
2019-02-05T07:10:18.710Z,-2.90
2019-02-05T07:12:45.324Z,-2.90
2019-02-05T07:15:12.071Z,-2.90
2019-02-05T07:17:48.905Z,-2.90
2019-02-05T07:20:08.335Z,-3.00
2019-02-05T07:22:34.865Z,-3.00
2019-02-05T07:25:01.420Z,-3.00
2019-02-05T07:27:28.238Z,-3.00
2019-02-05T07:29:54.804Z,-3.00
2019-02-05T07:32:21.324Z,-3.00
2019-02-05T07:34:47.889Z,-3.00
2019-02-05T07:37:14.390Z,-3.00
2019-02-05T07:39:40.940Z,-3.00
2019-02-05T07:42:07.461Z,-2.90
2019-02-05T07:44:34.022Z,-2.90
2019-02-05T07:47:01.832Z,-2.90
2019-02-05T07:49:28.392Z,-2.90
2019-02-05T07:51:55.208Z,-2.90
2019-02-05T07:54:21.760Z,-2.80
2019-02-05T07:56:48.280Z,-2.60
2019-02-05T07:59:14.841Z,-2.60
2019-02-05T08:01:41.381Z,-2.50
2019-02-05T08:04:07.940Z,-2.40
2019-02-05T08:06:34.549Z,-2.30
2019-02-05T08:09:01.063Z,-2.20
2019-02-05T08:11:27.626Z,-2.10
2019-02-05T08:13:54.376Z,-1.90
2019-02-05T08:16:20.886Z,-1.90
2019-02-05T08:18:47.439Z,-2.00
2019-02-05T08:21:13.996Z,-2.00
2019-02-05T08:23:40.907Z,-2.10
2019-02-05T08:26:07.455Z,-2.00
2019-02-05T08:28:40.534Z,-2.10
2019-02-05T08:31:02.324Z,-2.10
2019-02-05T08:33:28.882Z,-2.00
2019-02-05T08:35:55.407Z,-1.90
2019-02-05T08:38:22.359Z,-1.60
2019-02-05T08:40:48.868Z,-1.50
2019-02-05T08:43:15.418Z,-1.50
2019-02-05T08:45:41.936Z,-1.50
2019-02-05T08:48:09.704Z,-1.50
2019-02-05T08:50:36.359Z,-1.60
2019-02-05T08:53:03.248Z,-1.80
2019-02-05T08:55:30.871Z,-1.70
2019-02-05T08:57:59.026Z,-1.50
2019-02-05T09:00:27.185Z,-1.60
2019-02-05T09:02:53.750Z,-1.70
2019-02-05T09:05:20.300Z,-1.60
2019-02-05T09:07:46.855Z,-1.40
2019-02-05T09:10:15.264Z,-1.30
2019-02-05T09:12:41.741Z,-1.20
2019-02-05T09:15:09.915Z,-1.30
2019-02-05T09:17:36.428Z,-1.40
2019-02-05T09:20:05.191Z,-1.50
2019-02-05T09:22:31.710Z,-1.20
2019-02-05T09:24:58.266Z,-0.90
2019-02-05T09:27:24.784Z,-0.40
2019-02-05T09:29:51.340Z,-0.40
2019-02-05T09:32:18.553Z,-0.10
2019-02-05T09:34:45.112Z,0.30
2019-02-05T09:37:11.673Z,0.70
2019-02-05T09:39:38.197Z,1.00
2019-02-05T09:42:05.055Z,1.30
2019-02-05T09:44:31.664Z,1.30
2019-02-05T09:46:58.270Z,1.40
2019-02-05T09:49:24.820Z,1.40
2019-02-05T09:51:51.412Z,1.40
2019-02-05T09:54:17.927Z,1.30
2019-02-05T09:56:44.460Z,1.10
2019-02-05T09:59:11.016Z,1.20
2019-02-05T10:01:37.532Z,1.30
2019-02-05T10:04:04.385Z,1.40
2019-02-05T10:06:30.943Z,1.40
2019-02-05T10:08:57.501Z,1.50
2019-02-05T10:11:24.060Z,1.50
2019-02-05T10:13:50.622Z,1.70
2019-02-05T10:16:17.123Z,1.70
2019-02-05T10:18:45.884Z,1.80
2019-02-05T10:21:12.027Z,1.90
2019-02-05T10:23:38.549Z,1.80
2019-02-05T10:26:05.444Z,1.40
2019-02-05T10:28:32.000Z,1.60
2019-02-05T10:30:58.511Z,1.50
2019-02-05T10:33:25.067Z,1.20
2019-02-05T10:35:51.593Z,1.30
2019-02-05T10:38:18.143Z,1.40
2019-02-05T10:40:44.660Z,1.50
2019-02-05T10:43:11.221Z,1.50
2019-02-05T10:45:37.780Z,1.60
2019-02-05T10:48:05.506Z,1.30
2019-02-05T10:50:32.064Z,1.30
2019-02-05T10:52:58.584Z,1.40
2019-02-05T10:55:25.186Z,1.50
2019-02-05T10:57:52.459Z,1.60
2019-02-05T11:00:19.914Z,1.70
2019-02-05T11:02:46.527Z,1.70
2019-02-05T11:05:14.920Z,1.70
2019-02-05T11:07:41.776Z,1.70
2019-02-05T11:10:09.391Z,1.50
2019-02-05T11:12:35.946Z,1.40
2019-02-05T11:15:03.800Z,1.70
2019-02-05T11:17:30.312Z,1.90
2019-02-05T11:19:56.864Z,2.00
2019-02-05T11:22:23.415Z,2.10
2019-02-05T11:24:49.931Z,2.00
2019-02-05T11:27:16.475Z,2.00
2019-02-05T11:29:43.341Z,1.80
2019-02-05T11:32:09.863Z,1.90
2019-02-05T11:34:36.420Z,1.90
2019-02-05T11:37:03.048Z,2.00
2019-02-05T11:39:29.596Z,2.10
2019-02-05T11:41:56.116Z,2.20
2019-02-05T11:44:22.661Z,2.20
2019-02-05T11:46:49.176Z,2.20
2019-02-05T11:49:15.721Z,2.20
2019-02-05T11:51:42.531Z,2.20
2019-02-05T11:54:09.079Z,2.50
2019-02-05T11:56:35.628Z,2.60
2019-02-05T11:59:02.140Z,2.60
2019-02-05T12:01:38.500Z,2.60
2019-02-05T12:03:57.495Z,2.70
2019-02-05T12:06:24.079Z,2.80
2019-02-05T12:08:50.680Z,2.90
2019-02-05T12:11:17.225Z,3.00
2019-02-05T12:13:43.831Z,3.10
2019-02-05T12:16:10.419Z,3.20
2019-02-05T12:18:37.067Z,3.00
2019-02-05T12:21:03.585Z,2.90
2019-02-05T12:23:30.136Z,2.80
2019-02-05T12:25:56.649Z,2.90
2019-02-05T12:28:23.194Z,3.20
2019-02-05T12:30:49.736Z,3.20
2019-02-05T12:33:17.277Z,3.10
2019-02-05T12:35:44.095Z,3.00
2019-02-05T12:38:11.445Z,2.90
2019-02-05T12:40:38.006Z,2.80
2019-02-05T12:43:04.615Z,2.90
2019-02-05T12:45:32.269Z,2.40
2019-02-05T12:47:58.780Z,2.00
2019-02-05T12:50:27.036Z,2.00
2019-02-05T12:52:53.786Z,1.80
2019-02-05T12:55:20.619Z,1.50
2019-02-05T12:57:47.137Z,1.60
2019-02-05T13:00:24.496Z,1.90
2019-02-05T13:02:51.053Z,1.90
2019-02-05T13:05:17.603Z,2.00
2019-02-05T13:07:44.224Z,2.00
2019-02-05T13:10:12.585Z,2.20
2019-02-05T13:12:39.096Z,2.10
2019-02-05T13:15:07.451Z,2.10
2019-02-05T13:17:34.004Z,2.30
2019-02-05T13:20:00.525Z,2.10
2019-02-05T13:22:27.660Z,1.80
2019-02-05T13:24:54.208Z,2.00
2019-02-05T13:27:21.715Z,1.70
2019-02-05T13:29:48.472Z,1.30
2019-02-05T13:32:15.015Z,1.20
2019-02-05T13:34:41.528Z,1.00
2019-02-05T13:37:08.075Z,1.00
2019-02-05T13:39:34.619Z,0.80
2019-02-05T13:42:01.136Z,0.80
2019-02-05T13:44:27.682Z,0.90
2019-02-05T13:46:54.241Z,0.80
2019-02-05T13:49:20.957Z,0.50
2019-02-05T13:51:47.504Z,0.40
2019-02-05T13:54:14.055Z,0.40
2019-02-05T13:56:40.567Z,0.30
2019-02-05T13:59:07.120Z,0.10
2019-02-05T14:01:33.667Z,0.00
2019-02-05T14:04:00.273Z,-0.10
2019-02-05T14:06:26.862Z,-0.20
2019-02-05T14:08:53.640Z,-0.20
2019-02-05T14:11:20.145Z,-0.30
2019-02-05T14:13:46.701Z,-0.30
2019-02-05T14:16:13.550Z,-0.30
2019-02-05T14:18:40.058Z,-0.40
2019-02-05T14:21:06.611Z,-0.60
2019-02-05T14:23:33.159Z,-0.60
2019-02-05T14:25:59.775Z,-0.60
2019-02-05T14:28:26.621Z,-0.70
2019-02-05T14:30:53.177Z,-0.70
2019-02-05T14:33:20.287Z,-0.40
2019-02-05T14:35:46.839Z,-0.40
2019-02-05T14:38:13.411Z,-0.40
2019-02-05T14:40:40.004Z,-0.50
2019-02-05T14:43:06.616Z,-0.50
2019-02-05T14:45:33.277Z,-0.60
2019-02-05T14:47:59.979Z,-0.60
2019-02-05T14:50:31.099Z,-0.60
2019-02-05T14:52:57.707Z,-0.70
2019-02-05T14:55:24.269Z,-0.80
2019-02-05T14:57:51.221Z,-0.70
2019-02-05T15:00:21.956Z,-0.80
2019-02-05T15:02:48.708Z,-0.90
2019-02-05T15:05:15.419Z,-0.90
2019-02-05T15:07:42.108Z,-0.90
2019-02-05T15:10:10.228Z,-0.90
2019-02-05T15:12:36.793Z,-0.90
2019-02-05T15:15:05.106Z,-0.80
2019-02-05T15:17:31.639Z,-0.80
2019-02-05T15:19:58.156Z,-0.80
2019-02-05T15:22:25.592Z,-0.90
2019-02-05T15:24:52.112Z,-1.00
2019-02-05T15:27:18.660Z,-1.00
2019-02-05T15:29:45.176Z,-1.00
2019-02-05T15:32:13.520Z,-1.10
2019-02-05T15:34:40.031Z,-1.10
2019-02-05T15:37:06.588Z,-1.10
2019-02-05T15:39:33.312Z,-1.10
2019-02-05T15:41:59.864Z,-1.20
2019-02-05T15:44:26.389Z,-1.20
2019-02-05T15:46:52.940Z,-1.20
2019-02-05T15:49:19.442Z,-1.40
2019-02-05T15:51:45.955Z,-1.40
2019-02-05T15:54:13.103Z,-1.50
2019-02-05T15:56:39.615Z,-1.50
2019-02-05T15:59:06.460Z,-1.40
2019-02-05T16:01:32.979Z,-1.50
2019-02-05T16:03:59.527Z,-1.50
2019-02-05T16:06:26.084Z,-1.50
2019-02-05T16:08:52.640Z,-1.50
2019-02-05T16:11:19.183Z,-1.50
2019-02-05T16:13:45.698Z,-1.50
2019-02-05T16:16:12.244Z,-1.40
2019-02-05T16:18:40.556Z,-1.40
2019-02-05T16:21:07.105Z,-1.40
2019-02-05T16:23:33.666Z,-1.40
2019-02-05T16:26:00.172Z,-1.40
2019-02-05T16:28:26.724Z,-1.40
2019-02-05T16:30:53.242Z,-1.50
2019-02-05T16:33:19.795Z,-1.50
2019-02-05T16:35:46.351Z,-1.50
2019-02-05T16:38:13.172Z,-1.50
2019-02-05T16:40:40.123Z,-1.60
2019-02-05T16:43:06.663Z,-1.70
2019-02-05T16:45:33.178Z,-1.80
2019-02-05T16:47:59.728Z,-1.80
2019-02-05T16:50:28.077Z,-1.70
2019-02-05T16:52:54.583Z,-1.80
2019-02-05T16:55:21.132Z,-1.70
2019-02-05T16:57:47.996Z,-1.70
2019-02-05T17:00:16.100Z,-1.70
2019-02-05T17:02:42.639Z,-1.70
2019-02-05T17:05:09.259Z,-1.70
2019-02-05T17:07:35.777Z,-1.80
2019-02-05T17:10:04.158Z,-1.80
2019-02-05T17:12:30.711Z,-1.70
2019-02-05T17:14:57.224Z,-1.70
2019-02-05T17:17:23.780Z,-1.60
2019-02-05T17:19:50.345Z,-1.60
2019-02-05T17:22:16.862Z,-1.60
2019-02-05T17:24:43.708Z,-1.50
2019-02-05T17:27:10.255Z,-1.50
2019-02-05T17:29:36.797Z,-1.40
2019-02-05T17:32:03.635Z,-1.40
2019-02-05T17:34:30.187Z,-1.40
2019-02-05T17:36:56.711Z,-1.40
2019-02-05T17:39:23.280Z,-1.60
2019-02-05T17:41:49.832Z,-1.60
2019-02-05T17:44:16.344Z,-1.50
2019-02-05T17:46:42.901Z,-1.60
2019-02-05T17:49:12.100Z,-1.60
2019-02-05T17:51:37.948Z,-1.60
2019-02-05T17:54:04.899Z,-1.70
2019-02-05T17:56:31.492Z,-1.70
2019-02-05T17:58:57.995Z,-1.80
2019-02-05T18:01:24.548Z,-1.70
2019-02-05T18:03:51.091Z,-1.70
2019-02-05T18:06:17.609Z,-1.70
2019-02-05T18:08:44.209Z,-1.70
2019-02-05T18:11:10.787Z,-1.60
2019-02-05T18:13:37.701Z,-1.70
2019-02-05T18:16:05.254Z,-1.70
2019-02-05T18:18:31.755Z,-1.70
2019-02-05T18:20:58.311Z,-1.70
2019-02-05T18:23:24.823Z,-1.70
2019-02-05T18:25:51.372Z,-1.70
2019-02-05T18:28:17.887Z,-1.70
2019-02-05T18:30:44.516Z,-1.70
2019-02-05T18:33:11.329Z,-1.80
2019-02-05T18:35:37.880Z,-1.80
2019-02-05T18:38:06.191Z,-1.90
2019-02-05T18:40:32.744Z,-1.90
2019-02-05T18:42:59.329Z,-1.90
2019-02-05T18:45:25.894Z,-1.90
2019-02-05T18:47:52.442Z,-1.90
2019-02-05T18:50:23.542Z,-1.90
2019-02-05T18:52:50.052Z,-1.90
2019-02-05T18:55:16.608Z,-1.90
2019-02-05T18:57:43.144Z,-1.90
2019-02-05T19:00:11.496Z,-1.90
2019-02-05T19:02:40.678Z,-1.90
2019-02-05T19:05:07.965Z,-2.00
2019-02-05T19:07:34.519Z,-1.90
2019-02-05T19:10:01.329Z,-1.90
2019-02-05T19:12:27.908Z,-1.90
2019-02-05T19:14:54.530Z,-1.90
2019-02-05T19:17:21.086Z,-1.90
2019-02-05T19:19:47.585Z,-1.90
2019-02-05T19:22:14.128Z,-1.90
2019-02-05T19:24:42.443Z,-1.90
2019-02-05T19:27:08.956Z,-1.80
2019-02-05T19:29:35.509Z,-1.80
2019-02-05T19:32:02.026Z,-1.80
2019-02-05T19:34:28.571Z,-1.80
2019-02-05T19:36:55.084Z,-1.80
2019-02-05T19:39:21.635Z,-1.90
2019-02-05T19:41:48.144Z,-1.90
2019-02-05T19:44:14.692Z,-1.90
2019-02-05T19:46:51.531Z,-1.80
2019-02-05T19:49:23.042Z,-1.80
2019-02-05T19:51:49.645Z,-1.80
2019-02-05T19:54:16.293Z,-1.80
2019-02-05T19:56:43.141Z,-1.90
2019-02-05T19:59:09.797Z,-1.80
2019-02-05T20:01:36.308Z,-1.90
2019-02-05T20:04:04.094Z,-1.80
2019-02-05T20:06:30.609Z,-1.90
2019-02-05T20:08:57.469Z,-1.90
2019-02-05T20:11:23.994Z,-1.90
2019-02-05T20:13:50.583Z,-1.90
2019-02-05T20:16:17.107Z,-1.90
2019-02-05T20:18:43.661Z,-2.00
2019-02-05T20:21:10.172Z,-2.00
2019-02-05T20:23:36.736Z,-2.00
2019-02-05T20:26:03.353Z,-1.90
2019-02-05T20:28:29.909Z,-1.90
2019-02-05T20:30:56.676Z,-1.90
2019-02-05T20:33:23.205Z,-2.00
2019-02-05T20:35:49.763Z,-2.10
2019-02-05T20:38:16.400Z,-2.00
2019-02-05T20:40:42.974Z,-2.00
2019-02-05T20:43:09.492Z,-2.00
2019-02-05T20:45:36.028Z,-2.00
2019-02-05T20:48:02.975Z,-2.10
2019-02-05T20:50:29.573Z,-2.10
2019-02-05T20:52:56.551Z,-2.10
2019-02-05T20:55:23.573Z,-2.00
2019-02-05T20:57:50.127Z,-2.00
2019-02-05T21:00:24.360Z,-2.10
2019-02-05T21:02:50.923Z,-2.10
2019-02-05T21:05:18.374Z,-2.10
2019-02-05T21:07:44.925Z,-2.10
2019-02-05T21:10:13.240Z,-2.00
2019-02-05T21:12:39.840Z,-2.00
2019-02-05T21:15:09.275Z,-2.00
2019-02-05T21:17:35.868Z,-2.00
2019-02-05T21:20:03.812Z,-2.00
2019-02-05T21:22:30.319Z,-2.00
2019-02-05T21:24:56.837Z,-2.00
2019-02-05T21:27:23.382Z,-1.90
2019-02-05T21:29:50.204Z,-2.20
2019-02-05T21:32:16.757Z,-2.20
2019-02-05T21:34:43.276Z,-2.10
2019-02-05T21:37:09.891Z,-2.10
2019-02-05T21:39:36.411Z,-2.10
2019-02-05T21:42:03.774Z,-2.00
2019-02-05T21:44:30.287Z,-2.00
2019-02-05T21:46:56.841Z,-2.10
2019-02-05T21:49:23.356Z,-2.00
2019-02-05T21:51:50.208Z,-2.00
2019-02-05T21:54:16.715Z,-2.10
2019-02-05T21:56:43.236Z,-2.10
2019-02-05T21:59:09.792Z,-2.10
2019-02-05T22:01:36.317Z,-2.10
2019-02-05T22:04:03.261Z,-2.10
2019-02-05T22:06:31.977Z,-2.10
2019-02-05T22:08:58.594Z,-1.90
2019-02-05T22:11:25.078Z,-1.90
2019-02-05T22:13:51.668Z,-2.10
2019-02-05T22:16:19.803Z,-2.10
2019-02-05T22:18:46.451Z,-2.10
2019-02-05T22:21:13.412Z,-2.10
2019-02-05T22:23:39.932Z,-2.10
2019-02-05T22:26:06.489Z,-2.10
2019-02-05T22:28:32.999Z,-2.20
2019-02-05T22:30:59.611Z,-2.10
2019-02-05T22:33:28.051Z,-2.10
2019-02-05T22:35:54.504Z,-2.20
2019-02-05T22:38:21.027Z,-2.10
2019-02-05T22:40:47.551Z,-2.20
2019-02-05T22:43:14.299Z,-2.30
2019-02-05T22:45:41.238Z,-2.40
2019-02-05T22:48:07.864Z,-2.40
2019-02-05T22:50:37.388Z,-2.50
2019-02-05T22:53:05.139Z,-2.60
2019-02-05T22:55:31.676Z,-2.60
2019-02-05T22:57:58.291Z,-2.60
2019-02-05T23:00:49.559Z,-2.50
2019-02-05T23:03:17.720Z,-2.50
2019-02-05T23:05:58.462Z,-2.50
2019-02-05T23:08:25.079Z,-2.50
2019-02-05T23:11:04.680Z,-2.60
2019-02-05T23:13:30.763Z,-2.70
2019-02-05T23:15:57.360Z,-2.80
2019-02-05T23:18:23.875Z,-2.90
2019-02-05T23:20:50.450Z,-3.00
2019-02-05T23:23:16.980Z,-3.10
2019-02-05T23:25:43.610Z,-3.10
2019-02-05T23:28:10.319Z,-3.20
2019-02-05T23:30:37.168Z,-3.20
2019-02-05T23:33:03.907Z,-3.30
2019-02-05T23:35:32.518Z,-3.30
2019-02-05T23:37:58.920Z,-3.30
2019-02-05T23:40:25.556Z,-3.30
2019-02-05T23:42:52.477Z,-3.20
2019-02-05T23:45:19.135Z,-3.20
2019-02-05T23:47:45.734Z,-3.10
2019-02-05T23:50:13.272Z,-3.10
2019-02-05T23:52:40.328Z,-3.10
2019-02-05T23:55:08.430Z,-3.30
2019-02-05T23:57:35.068Z,-3.20
